createdAt,value
2022-10-05T00:01:01.133Z,13.43
2022-10-05T00:03:33.563Z,14.45
2022-10-05T00:06:03.483Z,14.82
2022-10-05T00:08:41.482Z,19.83
2022-10-05T00:11:10.870Z,16.92
2022-10-05T00:13:40.590Z,14.85
2022-10-05T00:16:19.644Z,15.10
2022-10-05T00:18:54.584Z,22.08
2022-10-05T00:21:29.409Z,27.60
2022-10-05T00:23:58.207Z,22.30
2022-10-05T00:26:35.807Z,14.98
2022-10-05T00:29:18.744Z,14.02
2022-10-05T00:31:45.380Z,19.40
2022-10-05T00:34:12.018Z,15.63
2022-10-05T00:36:40.061Z,18.27
2022-10-05T00:39:09.216Z,18.13
2022-10-05T00:42:02.955Z,23.73
2022-10-05T00:45:01.643Z,11.63
2022-10-05T00:47:31.256Z,12.27
2022-10-05T00:50:05.980Z,11.52
2022-10-05T00:52:41.437Z,14.82
2022-10-05T00:55:19.515Z,16.48
2022-10-05T00:57:58.921Z,14.38
2022-10-05T01:00:27.264Z,17.63
2022-10-05T01:02:59.388Z,15.43
2022-10-05T01:05:40.546Z,16.27
2022-10-05T01:08:16.256Z,13.88
2022-10-05T01:10:56.026Z,17.60
2022-10-05T01:13:31.318Z,13.67
2022-10-05T01:16:17.115Z,17.20
2022-10-05T01:18:51.435Z,15.52
2022-10-05T01:21:18.341Z,13.95
2022-10-05T01:24:03.635Z,18.50
2022-10-05T01:26:45.107Z,14.70
2022-10-05T01:29:30.629Z,14.27
2022-10-05T01:32:19.283Z,16.05
2022-10-05T01:35:04.965Z,13.73
2022-10-05T01:37:49.532Z,14.07
2022-10-05T01:40:34.683Z,12.30
2022-10-05T01:43:25.057Z,12.98
2022-10-05T01:46:15.058Z,14.27
2022-10-05T01:48:50.912Z,16.00
2022-10-05T01:51:30.699Z,15.25
2022-10-05T01:54:03.666Z,13.80
2022-10-05T01:56:57.121Z,16.65
2022-10-05T01:59:42.002Z,15.43
2022-10-05T02:02:16.969Z,15.70
2022-10-05T02:05:03.900Z,14.20
2022-10-05T02:07:34.832Z,13.27
2022-10-05T02:10:09.035Z,14.63
2022-10-05T02:12:38.450Z,15.95
2022-10-05T02:15:15.257Z,15.07
2022-10-05T02:17:50.708Z,15.18
2022-10-05T02:20:31.496Z,15.37
2022-10-05T02:23:08.121Z,15.93
2022-10-05T02:25:43.666Z,15.05
2022-10-05T02:28:21.898Z,13.77
2022-10-05T02:31:07.752Z,13.85
2022-10-05T02:33:38.212Z,13.87
2022-10-05T02:36:10.884Z,15.60
2022-10-05T02:38:44.034Z,14.15
2022-10-05T02:41:25.783Z,15.40
2022-10-05T02:44:19.613Z,14.85
2022-10-05T02:47:02.706Z,15.53
2022-10-05T02:49:56.678Z,13.88
2022-10-05T02:53:12.580Z,14.50
2022-10-05T02:55:56.009Z,13.60
2022-10-05T02:58:30.928Z,14.70
2022-10-05T03:01:09.520Z,13.83
2022-10-05T03:03:49.482Z,18.08
2022-10-05T03:06:25.573Z,13.55
2022-10-05T03:09:09.471Z,13.57
2022-10-05T03:11:51.638Z,14.77
2022-10-05T03:14:48.629Z,14.47
2022-10-05T03:17:26.077Z,17.23
2022-10-05T03:20:30.944Z,15.25
2022-10-05T03:23:03.893Z,16.20
2022-10-05T03:25:48.406Z,17.02
2022-10-05T03:28:24.795Z,15.20
2022-10-05T03:31:06.114Z,14.35
2022-10-05T03:34:05.714Z,17.05
2022-10-05T03:36:57.241Z,14.50
2022-10-05T03:39:27.187Z,14.07
2022-10-05T03:42:17.998Z,13.60
2022-10-05T03:45:02.794Z,14.85
2022-10-05T03:47:51.543Z,14.60
2022-10-05T03:51:03.069Z,13.57
2022-10-05T03:54:01.339Z,13.70
2022-10-05T03:56:36.252Z,12.57
2022-10-05T03:59:20.713Z,14.73
2022-10-05T04:02:06.543Z,13.35
2022-10-05T04:04:42.611Z,14.73
2022-10-05T04:07:22.294Z,15.60
2022-10-05T04:09:55.868Z,15.27
2022-10-05T04:12:45.164Z,15.15
2022-10-05T04:15:20.696Z,15.35
2022-10-05T04:17:52.456Z,14.65
2022-10-05T04:20:48.986Z,15.57
2022-10-05T04:23:29.826Z,15.67
2022-10-05T04:26:04.434Z,15.43
2022-10-05T04:28:54.249Z,14.27
2022-10-05T04:31:38.691Z,15.50
2022-10-05T04:34:27.739Z,15.93
2022-10-05T04:37:06.358Z,17.00
2022-10-05T04:40:06.911Z,13.77
2022-10-05T04:42:47.965Z,14.82
2022-10-05T04:45:39.603Z,14.82
2022-10-05T04:48:34.590Z,14.30
2022-10-05T04:51:09.409Z,15.57
2022-10-05T04:53:54.318Z,13.38
2022-10-05T04:56:30.850Z,14.65
2022-10-05T04:59:00.218Z,13.80
2022-10-05T05:01:48.188Z,17.77
2022-10-05T05:04:35.929Z,12.20
2022-10-05T05:07:40.211Z,12.82
2022-10-05T05:10:38.922Z,11.70
2022-10-05T05:13:11.554Z,13.82
2022-10-05T05:15:51.624Z,12.57
2022-10-05T05:18:59.053Z,13.87
2022-10-05T05:21:28.671Z,13.23
2022-10-05T05:24:04.757Z,13.68
2022-10-05T05:26:47.141Z,14.90
2022-10-05T05:29:26.198Z,13.13
2022-10-05T05:32:08.658Z,13.00
2022-10-05T05:34:43.845Z,13.15
2022-10-05T05:37:32.566Z,15.30
2022-10-05T05:40:10.192Z,14.65
2022-10-05T05:42:49.458Z,13.45
2022-10-05T05:45:48.283Z,13.97
2022-10-05T05:48:33.330Z,14.52
2022-10-05T05:51:08.362Z,14.27
2022-10-05T05:53:41.705Z,14.50
2022-10-05T05:56:16.112Z,15.40
2022-10-05T05:58:42.707Z,13.37
2022-10-05T06:01:35.504Z,12.82
2022-10-05T06:04:11.987Z,14.32
2022-10-05T06:06:47.090Z,16.55
2022-10-05T06:09:22.842Z,14.15
2022-10-05T06:11:56.460Z,12.43
2022-10-05T06:14:34.178Z,13.80
2022-10-05T06:17:17.809Z,15.48
2022-10-05T06:19:50.609Z,15.48
2022-10-05T06:22:40.929Z,14.23
2022-10-05T06:25:13.800Z,13.30
2022-10-05T06:27:55.643Z,14.10
2022-10-05T06:30:26.863Z,14.73
2022-10-05T06:33:13.652Z,16.30
2022-10-05T06:35:57.760Z,14.48
2022-10-05T06:38:36.508Z,15.90
2022-10-05T06:41:24.076Z,16.73
2022-10-05T06:43:58.873Z,16.02
2022-10-05T06:46:34.037Z,13.05
2022-10-05T06:49:08.980Z,14.30
2022-10-05T06:51:38.436Z,13.90
2022-10-05T06:54:14.256Z,15.00
2022-10-05T06:56:46.392Z,15.73
2022-10-05T06:59:34.505Z,15.93
2022-10-05T07:02:16.254Z,18.02
2022-10-05T07:04:45.753Z,13.97
2022-10-05T07:07:34.692Z,15.50
2022-10-05T07:10:12.997Z,14.82
2022-10-05T07:12:47.068Z,14.27
2022-10-05T07:15:34.760Z,14.63
2022-10-05T07:18:25.533Z,14.17
2022-10-05T07:21:05.609Z,12.85
2022-10-05T07:23:53.453Z,13.13
2022-10-05T07:26:33.888Z,12.07
2022-10-05T07:29:14.891Z,12.55
2022-10-05T07:31:44.851Z,14.23
2022-10-05T07:34:20.882Z,15.55
2022-10-05T07:37:18.497Z,13.07
2022-10-05T07:40:01.132Z,12.65
2022-10-05T07:42:59.948Z,12.95
2022-10-05T07:45:47.639Z,12.37
2022-10-05T07:48:37.158Z,12.77
2022-10-05T07:51:08.632Z,14.23
2022-10-05T07:53:43.847Z,15.25
2022-10-05T07:56:49.790Z,15.30
2022-10-05T07:59:33.009Z,13.20
2022-10-05T08:02:23.832Z,17.30
2022-10-05T08:04:56.047Z,15.88
2022-10-05T08:10:16.673Z,12.98
2022-10-05T08:13:22.226Z,14.30
2022-10-05T08:15:54.029Z,13.45
2022-10-05T08:18:42.289Z,12.80
2022-10-05T08:21:16.955Z,13.35
2022-10-05T08:24:13.176Z,11.55
2022-10-05T08:27:02.205Z,12.80
2022-10-05T08:29:41.293Z,14.40
2022-10-05T08:32:22.756Z,11.15
2022-10-05T08:35:15.444Z,9.68
2022-10-05T08:37:46.254Z,11.57
2022-10-05T08:40:18.892Z,12.13
2022-10-05T08:42:58.836Z,12.20
2022-10-05T08:45:49.283Z,10.52
2022-10-05T08:48:18.923Z,9.95
2022-10-05T08:51:10.275Z,10.40
2022-10-05T08:54:07.202Z,9.50
2022-10-05T08:56:45.086Z,10.73
2022-10-05T08:59:45.821Z,11.45
2022-10-05T09:02:12.319Z,10.60
2022-10-05T09:04:41.856Z,9.10
2022-10-05T09:07:14.965Z,11.33
2022-10-05T09:10:33.970Z,10.13
2022-10-05T09:13:11.830Z,9.60
2022-10-05T09:15:41.147Z,11.57
2022-10-05T09:18:45.354Z,9.57
2022-10-05T09:21:43.147Z,9.97
2022-10-05T09:24:15.012Z,12.43
2022-10-05T09:26:41.500Z,12.20
2022-10-05T09:29:16.827Z,10.05
2022-10-05T09:32:20.373Z,9.60
2022-10-05T09:35:00.530Z,9.30
2022-10-05T09:37:50.616Z,12.38
2022-10-05T09:40:32.563Z,11.20
2022-10-05T09:43:14.238Z,11.38
2022-10-05T09:45:48.672Z,12.02
2022-10-05T09:48:46.093Z,11.33
2022-10-05T09:51:33.226Z,10.88
2022-10-05T09:54:14.985Z,12.40
2022-10-05T09:57:04.222Z,10.95
2022-10-05T09:59:52.653Z,12.85
2022-10-05T10:02:33.538Z,10.50
2022-10-05T10:05:26.320Z,10.18
2022-10-05T10:08:20.281Z,10.70
2022-10-05T10:10:52.475Z,11.32
2022-10-05T10:13:56.650Z,11.05
2022-10-05T10:16:41.345Z,10.17
2022-10-05T10:19:20.033Z,12.93
2022-10-05T10:22:24.064Z,10.10
2022-10-05T10:25:27.645Z,10.68
2022-10-05T10:28:13.295Z,12.02
2022-10-05T10:31:19.989Z,11.40
2022-10-05T10:33:58.592Z,11.05
2022-10-05T10:36:34.313Z,10.52
2022-10-05T10:39:06.710Z,9.32
2022-10-05T10:41:39.353Z,11.25
2022-10-05T10:44:30.606Z,9.93
2022-10-05T10:47:15.660Z,9.93
2022-10-05T10:50:11.639Z,9.48
2022-10-05T10:52:59.623Z,9.65
2022-10-05T10:55:34.517Z,8.07
2022-10-05T10:58:19.758Z,8.57
2022-10-05T11:01:23.650Z,8.30
2022-10-05T11:04:05.015Z,9.02
2022-10-05T11:06:52.786Z,8.05
2022-10-05T11:09:56.954Z,8.57
2022-10-05T11:12:54.449Z,7.77
2022-10-05T11:15:27.145Z,7.70
2022-10-05T11:17:56.325Z,7.00
2022-10-05T11:21:01.543Z,7.88
2022-10-05T11:23:38.964Z,7.40
2022-10-05T11:26:42.098Z,6.93
2022-10-05T11:29:17.877Z,7.78
2022-10-05T11:31:59.752Z,7.65
2022-10-05T11:34:35.000Z,7.47
2022-10-05T11:37:29.160Z,7.72
2022-10-05T11:40:20.954Z,6.10
2022-10-05T11:43:08.358Z,7.22
2022-10-05T11:45:58.096Z,5.63
2022-10-05T11:48:41.836Z,6.25
2022-10-05T11:51:29.524Z,7.53
2022-10-05T11:54:18.386Z,6.30
2022-10-05T11:56:54.672Z,7.55
2022-10-05T11:59:27.064Z,6.82
2022-10-05T12:02:10.824Z,7.57
2022-10-05T12:05:10.779Z,6.35
2022-10-05T12:07:43.045Z,6.47
2022-10-05T12:10:32.680Z,6.65
2022-10-05T12:13:05.320Z,5.40
2022-10-05T12:15:54.439Z,10.88
2022-10-05T12:18:44.170Z,6.40
2022-10-05T12:21:27.608Z,6.07
2022-10-05T12:24:04.999Z,5.53
2022-10-05T12:26:34.370Z,5.43
2022-10-05T12:29:35.776Z,5.43
2022-10-05T12:32:05.962Z,5.45
2022-10-05T12:34:47.321Z,10.47
2022-10-05T12:37:40.356Z,7.15
2022-10-05T12:40:17.551Z,4.47
2022-10-05T12:42:50.378Z,6.03
2022-10-05T12:45:34.970Z,5.95
2022-10-05T12:48:10.559Z,7.70
2022-10-05T12:50:46.446Z,8.30
2022-10-05T12:53:28.725Z,6.03
2022-10-05T12:56:08.567Z,7.05
2022-10-05T12:58:50.461Z,5.57
2022-10-05T13:01:38.385Z,5.27
2022-10-05T13:04:27.428Z,6.95
2022-10-05T13:07:29.217Z,5.00
2022-10-05T13:10:40.401Z,6.60
2022-10-05T13:13:24.842Z,7.20
2022-10-05T13:16:17.933Z,7.13
2022-10-05T13:19:01.385Z,6.68
2022-10-05T13:21:46.627Z,7.25
2022-10-05T13:24:18.438Z,4.20
2022-10-05T13:26:54.831Z,4.47
2022-10-05T13:29:34.739Z,5.77
2022-10-05T13:32:12.736Z,6.72
2022-10-05T13:35:00.090Z,6.97
2022-10-05T13:37:45.301Z,7.15
2022-10-05T13:40:33.259Z,7.30
2022-10-05T13:43:33.711Z,9.87
2022-10-05T13:46:12.593Z,6.22
2022-10-05T13:48:56.959Z,6.80
2022-10-05T13:51:36.384Z,5.30
2022-10-05T13:54:27.103Z,5.57
2022-10-05T13:57:18.479Z,6.37
2022-10-05T13:59:57.675Z,4.25
2022-10-05T14:02:32.844Z,6.55
2022-10-05T14:05:01.513Z,5.18
2022-10-05T14:07:39.081Z,5.35
2022-10-05T14:10:28.673Z,5.60
2022-10-05T14:12:55.685Z,5.70
2022-10-05T14:15:32.749Z,4.90
2022-10-05T14:17:59.328Z,5.97
2022-10-05T14:20:27.714Z,6.88
2022-10-05T14:23:01.108Z,5.50
2022-10-05T14:25:33.491Z,6.95
2022-10-05T14:28:02.004Z,5.97
2022-10-05T14:30:32.794Z,4.93
2022-10-05T14:33:05.423Z,3.83
2022-10-05T14:35:52.634Z,4.07
2022-10-05T14:38:22.529Z,5.18
2022-10-05T14:41:07.784Z,5.45
2022-10-05T14:43:34.778Z,4.47
2022-10-05T14:46:14.890Z,4.43
2022-10-05T14:48:44.021Z,6.17
2022-10-05T14:51:32.226Z,2.92
2022-10-05T14:54:01.029Z,3.17
2022-10-05T14:56:33.634Z,4.15
2022-10-05T14:59:06.310Z,4.55
2022-10-05T15:01:39.384Z,6.97
2022-10-05T15:04:30.410Z,3.60
2022-10-05T15:07:13.627Z,3.55
2022-10-05T15:10:27.049Z,3.38
2022-10-05T15:12:58.335Z,3.67
2022-10-05T15:15:43.624Z,6.93
2022-10-05T15:18:10.078Z,3.67
2022-10-05T15:21:06.332Z,4.20
2022-10-05T15:23:43.024Z,3.33
2022-10-05T15:26:30.662Z,5.03
2022-10-05T15:29:36.158Z,3.80
2022-10-05T15:32:24.289Z,3.85
2022-10-05T15:35:15.096Z,5.57
2022-10-05T15:37:43.592Z,5.85
2022-10-05T15:40:26.885Z,6.88
2022-10-05T15:43:03.359Z,4.33
2022-10-05T15:45:41.266Z,4.82
2022-10-05T15:48:07.908Z,3.95
2022-10-05T15:51:00.855Z,4.22
2022-10-05T15:53:51.680Z,3.47
2022-10-05T15:56:23.572Z,4.43
2022-10-05T15:58:57.468Z,3.88
2022-10-05T16:01:33.324Z,4.30
2022-10-05T16:04:36.482Z,4.00
2022-10-05T16:07:22.072Z,4.40
2022-10-05T16:09:52.057Z,3.17
2022-10-05T16:12:33.546Z,6.00
2022-10-05T16:15:17.665Z,4.13
2022-10-05T16:18:21.175Z,4.05
2022-10-05T16:20:53.595Z,3.70
2022-10-05T16:23:56.488Z,6.27
2022-10-05T16:26:44.760Z,3.38
2022-10-05T16:29:33.208Z,5.72
2022-10-05T16:32:14.846Z,5.13
2022-10-05T16:35:02.589Z,4.40
2022-10-05T16:37:56.224Z,4.57
2022-10-05T16:40:31.437Z,2.85
2022-10-05T16:43:03.995Z,4.82
2022-10-05T16:46:15.654Z,3.40
2022-10-05T16:48:52.632Z,5.57
2022-10-05T16:51:24.482Z,4.00
2022-10-05T16:54:19.168Z,3.80
2022-10-05T16:56:54.384Z,4.97
2022-10-05T16:59:38.458Z,4.30
2022-10-05T17:02:29.206Z,3.30
2022-10-05T17:05:23.129Z,4.13
2022-10-05T17:08:08.590Z,4.43
2022-10-05T17:10:37.195Z,4.32
2022-10-05T17:13:19.700Z,4.63
2022-10-05T17:16:13.302Z,4.00
2022-10-05T17:19:00.855Z,4.53
2022-10-05T17:21:37.063Z,4.25
2022-10-05T17:24:41.578Z,3.88
2022-10-05T17:27:19.716Z,3.75
2022-10-05T17:30:17.974Z,4.95
2022-10-05T17:33:03.329Z,4.87
2022-10-05T17:35:52.094Z,3.90
2022-10-05T17:38:22.241Z,3.15
2022-10-05T17:41:23.776Z,4.25
2022-10-05T17:44:21.327Z,4.30
2022-10-05T17:47:04.517Z,4.83
2022-10-05T17:50:15.568Z,7.15
2022-10-05T17:53:02.693Z,3.88
2022-10-05T17:55:34.744Z,4.05
2022-10-05T17:58:24.123Z,4.72
2022-10-05T18:00:56.794Z,5.57
2022-10-05T18:03:41.771Z,3.17
2022-10-05T18:06:26.454Z,4.35
2022-10-05T18:09:22.991Z,4.50
2022-10-05T18:12:17.876Z,4.35
2022-10-05T18:14:52.822Z,3.87
2022-10-05T18:17:46.300Z,4.22
2022-10-05T18:20:30.167Z,5.28
2022-10-05T18:23:02.857Z,3.75
2022-10-05T18:25:39.447Z,3.78
2022-10-05T18:28:28.198Z,3.07
2022-10-05T18:30:55.126Z,4.25
2022-10-05T18:33:57.546Z,3.83
2022-10-05T18:36:57.979Z,3.00
2022-10-05T18:39:35.886Z,3.85
2022-10-05T18:42:35.782Z,3.97
2022-10-05T18:45:27.440Z,3.72
2022-10-05T18:47:56.730Z,3.05
2022-10-05T18:50:31.977Z,4.18
2022-10-05T18:53:35.961Z,7.03
2022-10-05T18:56:16.724Z,3.93
2022-10-05T18:58:52.070Z,3.67
2022-10-05T19:01:30.774Z,5.15
2022-10-05T19:04:12.614Z,3.95
2022-10-05T19:07:10.486Z,5.72
2022-10-05T19:10:13.560Z,3.93
2022-10-05T19:12:56.825Z,4.70
2022-10-05T19:15:35.575Z,4.43
2022-10-05T19:18:21.753Z,6.25
2022-10-05T19:20:57.241Z,5.80
2022-10-05T19:23:48.902Z,5.73
2022-10-05T19:26:21.918Z,7.18
2022-10-05T19:29:09.357Z,6.47
2022-10-05T19:31:45.394Z,6.93
2022-10-05T19:34:32.820Z,5.20
2022-10-05T19:37:09.982Z,5.17
2022-10-05T19:39:42.407Z,4.53
2022-10-05T19:42:15.091Z,8.18
2022-10-05T19:45:25.857Z,6.05
2022-10-05T19:48:22.238Z,5.68
2022-10-05T19:50:58.229Z,4.70
2022-10-05T19:53:37.476Z,5.13
2022-10-05T19:56:20.158Z,5.28
2022-10-05T19:58:48.487Z,8.02
2022-10-05T20:01:38.913Z,5.57
2022-10-05T20:04:06.911Z,6.07
2022-10-05T20:06:37.477Z,5.25
2022-10-05T20:09:20.176Z,5.18
2022-10-05T20:11:56.624Z,6.03
2022-10-05T20:14:32.768Z,5.35
2022-10-05T20:17:44.582Z,5.30
2022-10-05T20:20:25.676Z,6.13
2022-10-05T20:22:54.785Z,7.80
2022-10-05T20:25:21.265Z,5.57
2022-10-05T20:27:51.530Z,7.28
2022-10-05T20:30:27.554Z,5.87
2022-10-05T20:33:09.229Z,5.07
2022-10-05T20:35:38.264Z,7.78
2022-10-05T20:38:07.064Z,5.63
2022-10-05T20:40:33.743Z,5.50
2022-10-05T20:43:02.578Z,6.10
2022-10-05T20:45:31.424Z,4.93
2022-10-05T20:48:00.307Z,4.45
2022-10-05T20:50:27.824Z,5.40
2022-10-05T20:52:54.471Z,5.22
2022-10-05T20:55:23.242Z,4.27
2022-10-05T20:57:52.101Z,4.85
2022-10-05T21:00:20.950Z,4.13
2022-10-05T21:02:47.569Z,5.60
2022-10-05T21:05:18.525Z,5.10
2022-10-05T21:07:45.313Z,4.87
2022-10-05T21:10:17.539Z,8.75
2022-10-05T21:12:44.564Z,5.07
2022-10-05T21:15:12.802Z,5.65
2022-10-05T21:17:44.217Z,7.10
2022-10-05T21:20:12.699Z,7.53
2022-10-05T21:22:39.651Z,7.03
2022-10-05T21:25:09.387Z,5.88
2022-10-05T21:27:35.921Z,4.97
2022-10-05T21:30:02.485Z,4.55
2022-10-05T21:32:31.570Z,5.83
2022-10-05T21:34:58.117Z,11.68
2022-10-05T21:37:29.755Z,5.47
2022-10-05T21:39:56.403Z,4.60
2022-10-05T21:42:23.563Z,4.43
2022-10-05T21:44:50.284Z,6.10
2022-10-05T21:47:17.240Z,6.55
2022-10-05T21:49:45.998Z,7.80
2022-10-05T21:52:15.455Z,6.15
2022-10-05T21:54:42.428Z,5.88
2022-10-05T21:57:11.319Z,5.43
2022-10-05T21:59:37.968Z,18.90
2022-10-05T22:02:05.153Z,6.85
2022-10-05T22:04:31.740Z,6.68
2022-10-05T22:06:58.394Z,9.27
2022-10-05T22:09:25.302Z,6.53
2022-10-05T22:11:55.023Z,6.20
2022-10-05T22:14:24.142Z,8.73
2022-10-05T22:16:50.853Z,6.07
2022-10-05T22:19:20.062Z,7.32
2022-10-05T22:21:46.743Z,5.93
2022-10-05T22:24:13.652Z,5.47
2022-10-05T22:26:44.843Z,5.57
2022-10-05T22:29:11.723Z,5.18
2022-10-05T22:31:39.050Z,5.70
2022-10-05T22:34:05.814Z,5.87
2022-10-05T22:36:37.357Z,9.82
2022-10-05T22:39:06.361Z,5.20
2022-10-05T22:41:33.252Z,7.28
2022-10-05T22:44:00.320Z,5.40
2022-10-05T22:46:29.886Z,5.87
2022-10-05T22:48:56.654Z,5.53
2022-10-05T22:51:25.835Z,4.30
2022-10-05T22:53:57.602Z,4.63
2022-10-05T22:56:24.146Z,6.30
2022-10-05T22:58:53.236Z,5.20
2022-10-05T23:01:22.363Z,5.88
2022-10-05T23:03:55.732Z,4.95
2022-10-05T23:06:22.506Z,6.88
2022-10-05T23:08:51.419Z,4.38
2022-10-05T23:11:22.322Z,6.90
2022-10-05T23:13:52.803Z,6.85
2022-10-05T23:16:25.311Z,5.25
2022-10-05T23:18:53.678Z,6.82
2022-10-05T23:21:22.355Z,7.90
2022-10-05T23:23:51.483Z,7.30
2022-10-05T23:26:22.738Z,8.80
2022-10-05T23:28:52.523Z,7.85
2022-10-05T23:31:29.395Z,7.30
2022-10-05T23:33:58.691Z,6.18
2022-10-05T23:36:28.205Z,7.27
2022-10-05T23:38:57.240Z,5.53
2022-10-05T23:41:26.298Z,5.05
2022-10-05T23:43:55.240Z,6.38
2022-10-05T23:46:24.313Z,7.03
2022-10-05T23:48:53.856Z,7.20
2022-10-05T23:51:22.636Z,8.13
2022-10-05T23:53:49.559Z,7.28
2022-10-05T23:56:16.528Z,9.43
2022-10-05T23:58:46.112Z,6.65
